sensor_id;sensor_type;location;lat;lon;timestamp;pressure;altitude;pressure_sealevel;temperature;humidity
55032;BME280;40928;51.076;7.950;2022-07-29T00:01:24;97100.00;;;15.67;70.10
55032;BME280;40928;51.076;7.950;2022-07-29T00:03:50;97091.38;;;15.65;70.24
55032;BME280;40928;51.076;7.950;2022-07-29T00:06:16;97089.50;;;15.60;70.53
55032;BME280;40928;51.076;7.950;2022-07-29T00:08:41;97085.47;;;15.58;70.53
55032;BME280;40928;51.076;7.950;2022-07-29T00:11:07;97065.53;;;15.53;70.44
55032;BME280;40928;51.076;7.950;2022-07-29T00:13:32;97079.81;;;15.54;70.47
55032;BME280;40928;51.076;7.950;2022-07-29T00:15:58;97082.50;;;15.49;70.66
55032;BME280;40928;51.076;7.950;2022-07-29T00:18:24;97079.28;;;15.47;71.06
55032;BME280;40928;51.076;7.950;2022-07-29T00:20:49;97076.03;;;15.45;70.94
55032;BME280;40928;51.076;7.950;2022-07-29T00:23:14;97077.66;;;15.46;70.49
55032;BME280;40928;51.076;7.950;2022-07-29T00:25:40;97069.03;;;15.44;70.73
55032;BME280;40928;51.076;7.950;2022-07-29T00:28:05;97076.59;;;15.36;71.25
55032;BME280;40928;51.076;7.950;2022-07-29T00:30:31;97073.34;;;15.29;70.39
55032;BME280;40928;51.076;7.950;2022-07-29T00:32:56;97065.28;;;15.29;70.69
55032;BME280;40928;51.076;7.950;2022-07-29T00:35:22;97066.88;;;15.30;71.13
55032;BME280;40928;51.076;7.950;2022-07-29T00:38:06;97067.44;;;15.32;71.07
55032;BME280;40928;51.076;7.950;2022-07-29T00:40:31;97062.59;;;15.29;70.68
55032;BME280;40928;51.076;7.950;2022-07-29T00:42:57;97056.41;;;15.29;70.61
55032;BME280;40928;51.076;7.950;2022-07-29T00:45:23;97053.97;;;15.32;70.27
55032;BME280;40928;51.076;7.950;2022-07-29T00:47:48;97056.13;;;15.30;70.26
55032;BME280;40928;51.076;7.950;2022-07-29T00:50:14;97058.00;;;15.35;70.68
55032;BME280;40928;51.076;7.950;2022-07-29T00:52:41;97048.59;;;15.37;70.79
55032;BME280;40928;51.076;7.950;2022-07-29T00:55:12;97048.31;;;15.39;70.83
55032;BME280;40928;51.076;7.950;2022-07-29T00:57:38;97049.66;;;15.42;70.74
55032;BME280;40928;51.076;7.950;2022-07-29T01:00:07;97048.59;;;15.43;70.96
55032;BME280;40928;51.076;7.950;2022-07-29T01:02:33;97049.13;;;15.45;71.02
55032;BME280;40928;51.076;7.950;2022-07-29T01:04:59;97047.25;;;15.40;70.83
55032;BME280;40928;51.076;7.950;2022-07-29T01:07:25;97038.91;;;15.42;70.47
55032;BME280;40928;51.076;7.950;2022-07-29T01:09:53;97038.38;;;15.45;69.95
55032;BME280;40928;51.076;7.950;2022-07-29T01:12:23;97038.13;;;15.46;69.55
55032;BME280;40928;51.076;7.950;2022-07-29T01:14:49;97034.59;;;15.46;68.84
55032;BME280;40928;51.076;7.950;2022-07-29T01:20:26;97035.69;;;15.50;68.93
55032;BME280;40928;51.076;7.950;2022-07-29T01:28:55;97029.22;;;15.56;68.07
55032;BME280;40928;51.076;7.950;2022-07-29T01:31:24;97033.00;;;15.55;68.28
55032;BME280;40928;51.076;7.950;2022-07-29T01:33:56;97022.75;;;15.57;67.94
55032;BME280;40928;51.076;7.950;2022-07-29T01:36:27;97016.03;;;15.60;67.72
55032;BME280;40928;51.076;7.950;2022-07-29T01:39:04;97020.88;;;15.58;67.71
55032;BME280;40928;51.076;7.950;2022-07-29T01:41:32;97023.28;;;15.59;67.69
55032;BME280;40928;51.076;7.950;2022-07-29T01:44:09;97032.19;;;15.60;67.42
55032;BME280;40928;51.076;7.950;2022-07-29T01:46:38;97029.22;;;15.61;67.63
55032;BME280;40928;51.076;7.950;2022-07-29T01:49:31;97019.25;;;15.62;67.25
55032;BME280;40928;51.076;7.950;2022-07-29T01:52:05;97030.28;;;15.60;65.84
55032;BME280;40928;51.076;7.950;2022-07-29T01:54:43;97021.13;;;15.61;66.18
55032;BME280;40928;51.076;7.950;2022-07-29T01:57:15;97024.38;;;15.63;66.92
55032;BME280;40928;51.076;7.950;2022-07-29T01:59:43;97020.06;;;15.62;67.26
55032;BME280;40928;51.076;7.950;2022-07-29T02:02:11;97026.78;;;15.65;67.06
55032;BME280;40928;51.076;7.950;2022-07-29T02:04:39;97025.19;;;15.64;66.83
55032;BME280;40928;51.076;7.950;2022-07-29T02:07:07;97018.44;;;15.66;66.63
55032;BME280;40928;51.076;7.950;2022-07-29T02:09:37;97016.53;;;15.67;66.60
55032;BME280;40928;51.076;7.950;2022-07-29T02:12:05;97011.97;;;15.67;66.52
55032;BME280;40928;51.076;7.950;2022-07-29T02:14:35;97008.75;;;15.65;66.84
55032;BME280;40928;51.076;7.950;2022-07-29T02:17:02;97005.25;;;15.65;66.79
55032;BME280;40928;51.076;7.950;2022-07-29T02:19:29;97001.47;;;15.66;66.89
55032;BME280;40928;51.076;7.950;2022-07-29T02:21:57;96997.69;;;15.67;67.04
55032;BME280;40928;51.076;7.950;2022-07-29T02:24:24;96993.13;;;15.67;66.92
55032;BME280;40928;51.076;7.950;2022-07-29T02:26:52;96987.22;;;15.71;65.74
55032;BME280;40928;51.076;7.950;2022-07-29T02:29:21;96985.03;;;15.73;65.51
55032;BME280;40928;51.076;7.950;2022-07-29T02:31:48;96987.19;;;15.76;65.33
55032;BME280;40928;51.076;7.950;2022-07-29T02:34:15;96977.78;;;15.78;64.38
55032;BME280;40928;51.076;7.950;2022-07-29T02:36:43;96985.03;;;15.83;63.44
55032;BME280;40928;51.076;7.950;2022-07-29T02:39:10;96983.44;;;15.87;62.73
55032;BME280;40928;51.076;7.950;2022-07-29T02:41:42;96984.47;;;15.91;62.66
55032;BME280;40928;51.076;7.950;2022-07-29T02:44:14;96983.16;;;15.94;61.81
55032;BME280;40928;51.076;7.950;2022-07-29T02:49:56;96978.00;;;15.92;61.95
55032;BME280;40928;51.076;7.950;2022-07-29T02:52:39;96979.09;;;15.91;62.04
55032;BME280;40928;51.076;7.950;2022-07-29T02:57:44;96975.59;;;15.91;62.48
55032;BME280;40928;51.076;7.950;2022-07-29T03:00:12;96982.34;;;15.88;62.07
55032;BME280;40928;51.076;7.950;2022-07-29T03:02:42;96982.34;;;15.88;62.71
55032;BME280;40928;51.076;7.950;2022-07-29T03:05:11;96987.75;;;15.88;63.42
55032;BME280;40928;51.076;7.950;2022-07-29T03:07:39;96985.06;;;15.88;63.65
55032;BME280;40928;51.076;7.950;2022-07-29T03:10:07;96986.38;;;15.86;63.07
55032;BME280;40928;51.076;7.950;2022-07-29T03:12:34;96989.63;;;15.88;62.58
55032;BME280;40928;51.076;7.950;2022-07-29T03:15:01;96985.31;;;15.87;62.39
55032;BME280;40928;51.076;7.950;2022-07-29T03:17:27;96993.91;;;15.89;63.45
55032;BME280;40928;51.076;7.950;2022-07-29T03:19:53;96992.59;;;15.86;63.92
55032;BME280;40928;51.076;7.950;2022-07-29T03:22:19;96992.59;;;15.86;64.30
55032;BME280;40928;51.076;7.950;2022-07-29T03:24:44;96989.09;;;15.75;64.20
55032;BME280;40928;51.076;7.950;2022-07-29T03:27:10;96992.84;;;15.74;63.97
55032;BME280;40928;51.076;7.950;2022-07-29T03:29:35;96986.13;;;15.72;63.96
55032;BME280;40928;51.076;7.950;2022-07-29T03:32:05;96980.75;;;15.72;65.05
55032;BME280;40928;51.076;7.950;2022-07-29T03:34:31;96968.66;;;15.64;65.14
55032;BME280;40928;51.076;7.950;2022-07-29T03:36:56;96972.97;;;15.60;65.67
55032;BME280;40928;51.076;7.950;2022-07-29T03:39:25;96970.03;;;15.56;65.87
55032;BME280;40928;51.076;7.950;2022-07-29T03:41:57;96959.78;;;15.53;66.21
55032;BME280;40928;51.076;7.950;2022-07-29T03:44:24;96954.41;;;15.48;66.47
55032;BME280;40928;51.076;7.950;2022-07-29T03:46:51;96963.84;;;15.45;66.61
55032;BME280;40928;51.076;7.950;2022-07-29T03:49:21;96956.59;;;15.41;66.86
55032;BME280;40928;51.076;7.950;2022-07-29T03:51:47;96956.31;;;15.37;66.89
55032;BME280;40928;51.076;7.950;2022-07-29T03:54:13;96964.41;;;15.32;67.30
55032;BME280;40928;51.076;7.950;2022-07-29T03:56:44;96960.63;;;15.28;67.35
55032;BME280;40928;51.076;7.950;2022-07-29T03:59:15;96961.44;;;15.23;67.97
55032;BME280;40928;51.076;7.950;2022-07-29T04:01:41;96970.59;;;15.17;68.12
55032;BME280;40928;51.076;7.950;2022-07-29T04:04:07;96966.56;;;15.09;68.63
55032;BME280;40928;51.076;7.950;2022-07-29T04:06:44;96966.03;;;15.02;69.48
55032;BME280;40928;51.076;7.950;2022-07-29T04:09:10;96959.56;;;14.98;69.34
55032;BME280;40928;51.076;7.950;2022-07-29T04:11:38;96964.69;;;14.94;69.57
55032;BME280;40928;51.076;7.950;2022-07-29T04:14:04;96971.13;;;14.88;69.89
55032;BME280;40928;51.076;7.950;2022-07-29T04:16:29;96970.88;;;14.84;70.02
55032;BME280;40928;51.076;7.950;2022-07-29T04:18:55;96965.19;;;14.81;70.34
55032;BME280;40928;51.076;7.950;2022-07-29T04:21:20;96956.88;;;14.77;70.16
55032;BME280;40928;51.076;7.950;2022-07-29T04:23:46;96965.47;;;14.74;70.59
55032;BME280;40928;51.076;7.950;2022-07-29T04:26:15;96951.75;;;14.70;70.86
55032;BME280;40928;51.076;7.950;2022-07-29T04:28:41;96964.91;;;14.67;71.24
55032;BME280;40928;51.076;7.950;2022-07-29T04:31:08;96958.44;;;14.62;71.31
55032;BME280;40928;51.076;7.950;2022-07-29T04:33:34;96972.41;;;14.59;71.49
55032;BME280;40928;51.076;7.950;2022-07-29T04:35:59;96978.03;;;14.58;71.21
55032;BME280;40928;51.076;7.950;2022-07-29T04:38:28;96973.47;;;14.58;70.98
55032;BME280;40928;51.076;7.950;2022-07-29T04:40:57;96973.19;;;14.55;71.35
55032;BME280;40928;51.076;7.950;2022-07-29T04:43:22;96974.53;;;14.52;71.54
55032;BME280;40928;51.076;7.950;2022-07-29T04:45:48;96970.50;;;14.50;71.27
55032;BME280;40928;51.076;7.950;2022-07-29T04:48:13;96968.88;;;14.49;71.45
55032;BME280;40928;51.076;7.950;2022-07-29T04:50:39;96972.38;;;14.49;71.37
55032;BME280;40928;51.076;7.950;2022-07-29T04:53:06;96980.69;;;14.42;72.04
55032;BME280;40928;51.076;7.950;2022-07-29T04:55:31;96976.13;;;14.38;72.20
55032;BME280;40928;51.076;7.950;2022-07-29T04:57:57;96981.75;;;14.41;72.07
55032;BME280;40928;51.076;7.950;2022-07-29T05:00:22;96979.63;;;14.43;71.59
55032;BME280;40928;51.076;7.950;2022-07-29T05:02:49;96974.53;;;14.47;71.44
55032;BME280;40928;51.076;7.950;2022-07-29T05:05:14;96979.09;;;14.52;71.63
55032;BME280;40928;51.076;7.950;2022-07-29T05:07:40;96977.22;;;14.57;71.57
55032;BME280;40928;51.076;7.950;2022-07-29T05:10:06;96987.44;;;14.60;71.09
55032;BME280;40928;51.076;7.950;2022-07-29T05:12:32;96982.09;;;14.66;70.81
55032;BME280;40928;51.076;7.950;2022-07-29T05:14:57;96975.38;;;14.63;70.88
55032;BME280;40928;51.076;7.950;2022-07-29T05:17:23;96992.88;;;14.76;71.08
55032;BME280;40928;51.076;7.950;2022-07-29T05:19:48;96988.59;;;14.80;71.17
55032;BME280;40928;51.076;7.950;2022-07-29T05:22:20;96991.03;;;14.87;70.84
55032;BME280;40928;51.076;7.950;2022-07-29T05:24:46;96993.16;;;14.95;70.74
55032;BME280;40928;51.076;7.950;2022-07-29T05:27:12;96995.34;;;15.03;71.01
55032;BME280;40928;51.076;7.950;2022-07-29T05:29:38;96996.69;;;15.11;70.60
55032;BME280;40928;51.076;7.950;2022-07-29T05:32:04;96994.25;;;15.15;70.08
55032;BME280;40928;51.076;7.950;2022-07-29T05:34:30;96991.28;;;15.21;69.71
55032;BME280;40928;51.076;7.950;2022-07-29T05:36:56;96995.59;;;15.28;69.57
55032;BME280;40928;51.076;7.950;2022-07-29T05:39:22;96989.41;;;15.32;70.53
55032;BME280;40928;51.076;7.950;2022-07-29T05:41:48;96994.50;;;15.34;70.26
55032;BME280;40928;51.076;7.950;2022-07-29T05:44:13;96989.13;;;15.39;70.06
55032;BME280;40928;51.076;7.950;2022-07-29T05:46:40;96989.13;;;15.44;69.89
55032;BME280;40928;51.076;7.950;2022-07-29T05:49:05;96995.31;;;15.50;69.69
55032;BME280;40928;51.076;7.950;2022-07-29T05:51:33;97001.22;;;15.57;69.42
55032;BME280;40928;51.076;7.950;2022-07-29T05:53:59;97003.66;;;15.64;69.54
55032;BME280;40928;51.076;7.950;2022-07-29T05:56:24;96999.06;;;15.70;70.27
55032;BME280;40928;51.076;7.950;2022-07-29T05:58:50;97002.25;;;15.77;70.01
55032;BME280;40928;51.076;7.950;2022-07-29T06:01:16;97008.44;;;15.82;69.58
55032;BME280;40928;51.076;7.950;2022-07-29T06:03:42;97006.03;;;15.91;70.13
55032;BME280;40928;51.076;7.950;2022-07-29T06:06:08;97005.72;;;16.03;70.18
55032;BME280;40928;51.076;7.950;2022-07-29T06:08:34;97001.13;;;16.14;69.61
55032;BME280;40928;51.076;7.950;2022-07-29T06:11:02;97015.06;;;16.26;70.12
55032;BME280;40928;51.076;7.950;2022-07-29T06:13:27;97009.38;;;16.38;69.11
55032;BME280;40928;51.076;7.950;2022-07-29T06:15:53;97010.38;;;16.53;66.96
55032;BME280;40928;51.076;7.950;2022-07-29T06:18:18;97009.75;;;16.66;66.46
55032;BME280;40928;51.076;7.950;2022-07-29T06:20:46;97004.56;;;16.80;66.16
55032;BME280;40928;51.076;7.950;2022-07-29T06:23:11;97014.97;;;16.92;64.85
55032;BME280;40928;51.076;7.950;2022-07-29T06:25:39;97009.28;;;17.04;65.07
55032;BME280;40928;51.076;7.950;2022-07-29T06:28:04;97015.09;;;17.16;63.57
55032;BME280;40928;51.076;7.950;2022-07-29T06:30:30;97020.94;;;17.29;63.86
55032;BME280;40928;51.076;7.950;2022-07-29T06:32:55;97024.09;;;17.41;63.80
55032;BME280;40928;51.076;7.950;2022-07-29T06:35:21;97025.09;;;17.50;61.74
55032;BME280;40928;51.076;7.950;2022-07-29T06:37:47;97026.06;;;17.60;60.58
55032;BME280;40928;51.076;7.950;2022-07-29T06:40:12;97034.09;;;17.70;59.57
55032;BME280;40928;51.076;7.950;2022-07-29T06:42:56;97025.13;;;17.75;58.33
55032;BME280;40928;51.076;7.950;2022-07-29T06:45:22;97034.84;;;17.76;58.25
55032;BME280;40928;51.076;7.950;2022-07-29T06:47:47;97028.91;;;17.74;57.36
55032;BME280;40928;51.076;7.950;2022-07-29T06:50:13;97027.03;;;17.74;57.91
55032;BME280;40928;51.076;7.950;2022-07-29T06:52:39;97031.31;;;17.75;57.95
55032;BME280;40928;51.076;7.950;2022-07-29T06:55:06;97042.13;;;17.75;57.16
55032;BME280;40928;51.076;7.950;2022-07-29T06:57:32;97045.94;;;17.74;57.17
55032;BME280;40928;51.076;7.950;2022-07-29T06:59:57;97048.13;;;17.72;57.46
55032;BME280;40928;51.076;7.950;2022-07-29T07:02:23;97051.91;;;17.71;57.32
55032;BME280;40928;51.076;7.950;2022-07-29T07:04:49;97039.00;;;17.63;57.58
55032;BME280;40928;51.076;7.950;2022-07-29T07:07:14;97048.94;;;17.68;57.70
55032;BME280;40928;51.076;7.950;2022-07-29T07:09:39;97049.47;;;17.70;57.68
55032;BME280;40928;51.076;7.950;2022-07-29T07:12:05;97056.47;;;17.76;57.93
55032;BME280;40928;51.076;7.950;2022-07-29T07:14:31;97048.59;;;17.79;57.90
55032;BME280;40928;51.076;7.950;2022-07-29T07:16:56;97046.09;;;17.83;58.17
55032;BME280;40928;51.076;7.950;2022-07-29T07:19:22;97046.88;;;17.89;58.39
55032;BME280;40928;51.076;7.950;2022-07-29T07:21:47;97044.09;;;17.99;58.71
55032;BME280;40928;51.076;7.950;2022-07-29T07:24:13;97042.38;;;18.08;57.48
55032;BME280;40928;51.076;7.950;2022-07-29T07:26:38;97048.50;;;18.14;54.84
55032;BME280;40928;51.076;7.950;2022-07-29T07:29:05;97040.16;;;18.16;54.13
55032;BME280;40928;51.076;7.950;2022-07-29T07:31:31;97049.00;;;18.21;54.43
55032;BME280;40928;51.076;7.950;2022-07-29T07:33:56;97041.56;;;18.32;56.05
55032;BME280;40928;51.076;7.950;2022-07-29T07:36:22;97052.25;;;18.42;55.90
55032;BME280;40928;51.076;7.950;2022-07-29T07:38:48;97055.44;;;18.50;55.18
55032;BME280;40928;51.076;7.950;2022-07-29T07:41:13;97055.06;;;18.56;54.71
55032;BME280;40928;51.076;7.950;2022-07-29T07:43:39;97044.16;;;18.62;53.35
55032;BME280;40928;51.076;7.950;2022-07-29T07:46:05;97044.63;;;18.69;53.26
55032;BME280;40928;51.076;7.950;2022-07-29T07:48:30;97055.59;;;18.78;53.26
55032;BME280;40928;51.076;7.950;2022-07-29T07:50:55;97047.84;;;18.90;55.25
55032;BME280;40928;51.076;7.950;2022-07-29T07:53:21;97055.56;;;19.02;55.33
55032;BME280;40928;51.076;7.950;2022-07-29T07:55:47;97044.69;;;19.07;53.61
55032;BME280;40928;51.076;7.950;2022-07-29T07:58:12;97048.31;;;19.16;51.81
55032;BME280;40928;51.076;7.950;2022-07-29T08:00:38;97046.50;;;19.12;51.19
55032;BME280;40928;51.076;7.950;2022-07-29T08:03:04;97045.41;;;19.13;51.74
55032;BME280;40928;51.076;7.950;2022-07-29T08:05:29;97048.25;;;19.02;51.06
55032;BME280;40928;51.076;7.950;2022-07-29T08:07:55;97050.94;;;19.02;51.60
55032;BME280;40928;51.076;7.950;2022-07-29T08:10:20;97049.56;;;19.05;51.74
55032;BME280;40928;51.076;7.950;2022-07-29T08:13:06;97053.59;;;19.08;51.58
55032;BME280;40928;51.076;7.950;2022-07-29T08:15:32;97058.31;;;19.16;51.58
55032;BME280;40928;51.076;7.950;2022-07-29T08:17:58;97049.84;;;19.23;51.05
55032;BME280;40928;51.076;7.950;2022-07-29T08:20:24;97052.41;;;19.33;51.46
55032;BME280;40928;51.076;7.950;2022-07-29T08:22:50;97049.66;;;19.52;51.69
55032;BME280;40928;51.076;7.950;2022-07-29T08:25:16;97055.91;;;19.67;50.97
55032;BME280;40928;51.076;7.950;2022-07-29T08:27:48;97055.03;;;19.85;50.69
55032;BME280;40928;51.076;7.950;2022-07-29T08:30:14;97052.69;;;19.98;49.69
55032;BME280;40928;51.076;7.950;2022-07-29T08:35:12;97050.09;;;20.20;49.31
55032;BME280;40928;51.076;7.950;2022-07-29T08:37:38;97050.09;;;20.34;49.60
55032;BME280;40928;51.076;7.950;2022-07-29T08:40:04;97053.31;;;20.50;49.06
55032;BME280;40928;51.076;7.950;2022-07-29T08:42:32;97057.81;;;20.69;48.42
55032;BME280;40928;51.076;7.950;2022-07-29T08:44:58;97059.72;;;20.82;47.86
55032;BME280;40928;51.076;7.950;2022-07-29T08:47:25;97061.00;;;20.99;47.67
55032;BME280;40928;51.076;7.950;2022-07-29T08:49:51;97061.13;;;21.17;47.39
55032;BME280;40928;51.076;7.950;2022-07-29T08:52:17;97049.53;;;21.25;47.36
55032;BME280;40928;51.076;7.950;2022-07-29T08:54:44;97058.31;;;21.44;46.86
55032;BME280;40928;51.076;7.950;2022-07-29T08:57:12;97051.91;;;21.63;46.58
55032;BME280;40928;51.076;7.950;2022-07-29T08:59:42;97043.50;;;21.73;46.19
55032;BME280;40928;51.076;7.950;2022-07-29T09:02:18;97050.44;;;21.88;46.17
55032;BME280;40928;51.076;7.950;2022-07-29T09:04:45;97046.34;;;22.00;45.47
55032;BME280;40928;51.076;7.950;2022-07-29T09:07:15;97036.44;;;22.04;45.45
55032;BME280;40928;51.076;7.950;2022-07-29T09:09:41;97038.41;;;22.12;45.68
55032;BME280;40928;51.076;7.950;2022-07-29T09:12:11;97039.28;;;22.39;46.20
55032;BME280;40928;51.076;7.950;2022-07-29T09:14:38;97035.19;;;22.59;45.32
55032;BME280;40928;51.076;7.950;2022-07-29T09:17:04;97032.19;;;22.70;45.11
55032;BME280;40928;51.076;7.950;2022-07-29T09:19:33;97034.41;;;22.68;44.47
55032;BME280;40928;51.076;7.950;2022-07-29T09:22:02;97038.28;;;22.75;44.52
55032;BME280;40928;51.076;7.950;2022-07-29T09:27:01;97023.09;;;23.09;44.78
55032;BME280;40928;51.076;7.950;2022-07-29T09:29:27;97025.84;;;23.27;43.49
55032;BME280;40928;51.076;7.950;2022-07-29T09:31:54;97031.25;;;23.45;43.00
55032;BME280;40928;51.076;7.950;2022-07-29T09:34:28;97028.00;;;23.60;42.88
55032;BME280;40928;51.076;7.950;2022-07-29T09:36:55;97030.41;;;23.62;42.34
55032;BME280;40928;51.076;7.950;2022-07-29T09:39:39;97033.91;;;23.80;42.85
55032;BME280;40928;51.076;7.950;2022-07-29T09:42:27;97028.91;;;23.91;41.97
55032;BME280;40928;51.076;7.950;2022-07-29T09:44:56;97020.34;;;24.10;42.06
55032;BME280;40928;51.076;7.950;2022-07-29T09:47:22;97026.66;;;24.31;41.96
55032;BME280;40928;51.076;7.950;2022-07-29T09:50:05;97028.22;;;24.41;41.23
55032;BME280;40928;51.076;7.950;2022-07-29T09:52:31;97020.50;;;24.43;41.08
55032;BME280;40928;51.076;7.950;2022-07-29T09:55:08;97020.81;;;24.42;41.44
55032;BME280;40928;51.076;7.950;2022-07-29T09:57:34;97020.56;;;24.35;41.62
55032;BME280;40928;51.076;7.950;2022-07-29T10:00:04;97016.75;;;24.27;42.97
55032;BME280;40928;51.076;7.950;2022-07-29T10:02:40;97015.41;;;24.33;42.59
55032;BME280;40928;51.076;7.950;2022-07-29T10:05:17;97011.31;;;24.48;41.97
55032;BME280;40928;51.076;7.950;2022-07-29T10:07:46;97010.63;;;24.60;41.57
55032;BME280;40928;51.076;7.950;2022-07-29T10:10:19;97014.53;;;24.80;41.49
55032;BME280;40928;51.076;7.950;2022-07-29T10:12:56;97011.78;;;25.01;40.62
55032;BME280;40928;51.076;7.950;2022-07-29T10:15:24;97022.41;;;25.15;40.35
55032;BME280;40928;51.076;7.950;2022-07-29T10:17:52;97013.50;;;25.27;40.52
55032;BME280;40928;51.076;7.950;2022-07-29T10:20:19;97021.47;;;25.32;40.60
55032;BME280;40928;51.076;7.950;2022-07-29T10:22:47;97019.69;;;25.36;40.55
55032;BME280;40928;51.076;7.950;2022-07-29T10:25:14;97011.59;;;25.40;40.04
55032;BME280;40928;51.076;7.950;2022-07-29T10:27:45;97023.41;;;25.32;41.51
55032;BME280;40928;51.076;7.950;2022-07-29T10:30:14;97010.97;;;25.01;40.91
55032;BME280;40928;51.076;7.950;2022-07-29T10:35:56;97011.78;;;25.01;40.33
55032;BME280;40928;51.076;7.950;2022-07-29T10:38:48;97016.31;;;24.97;40.69
55032;BME280;40928;51.076;7.950;2022-07-29T10:44:22;97019.03;;;24.97;41.02
55032;BME280;40928;51.076;7.950;2022-07-29T10:46:51;97019.78;;;25.06;40.33
55032;BME280;40928;51.076;7.950;2022-07-29T10:49:20;97010.25;;;25.13;40.89
55032;BME280;40928;51.076;7.950;2022-07-29T11:02:42;97003.78;;;26.09;38.60
55032;BME280;40928;51.076;7.950;2022-07-29T11:05:16;96999.34;;;26.17;38.32
55032;BME280;40928;51.076;7.950;2022-07-29T11:10:42;97006.88;;;26.33;37.37
55032;BME280;40928;51.076;7.950;2022-07-29T11:13:09;97015.78;;;26.42;37.38
55032;BME280;40928;51.076;7.950;2022-07-29T11:16:05;97015.97;;;26.74;37.67
55032;BME280;40928;51.076;7.950;2022-07-29T11:18:32;97010.16;;;26.75;36.93
55032;BME280;40928;51.076;7.950;2022-07-29T11:21:02;97012.28;;;26.95;36.82
55032;BME280;40928;51.076;7.950;2022-07-29T11:23:30;97002.34;;;27.02;36.66
55032;BME280;40928;51.076;7.950;2022-07-29T11:26:13;96997.09;;;27.26;36.01
55032;BME280;40928;51.076;7.950;2022-07-29T11:28:58;97004.00;;;27.19;35.57
55032;BME280;40928;51.076;7.950;2022-07-29T11:31:41;96997.72;;;27.47;36.05
55032;BME280;40928;51.076;7.950;2022-07-29T11:34:25;97000.97;;;27.37;35.97
55032;BME280;40928;51.076;7.950;2022-07-29T11:39:39;97002.59;;;27.26;35.41
55032;BME280;40928;51.076;7.950;2022-07-29T11:45:10;96996.47;;;27.45;35.23
55032;BME280;40928;51.076;7.950;2022-07-29T11:47:40;96991.91;;;27.65;35.49
55032;BME280;40928;51.076;7.950;2022-07-29T11:50:12;96990.72;;;27.94;35.12
55032;BME280;40928;51.076;7.950;2022-07-29T11:52:44;96994.31;;;28.31;34.68
55032;BME280;40928;51.076;7.950;2022-07-29T11:55:19;96982.56;;;28.30;35.33
55032;BME280;40928;51.076;7.950;2022-07-29T11:57:50;96983.72;;;28.13;35.17
55032;BME280;40928;51.076;7.950;2022-07-29T12:00:41;96985.88;;;28.39;34.58
55032;BME280;40928;51.076;7.950;2022-07-29T12:03:10;96986.91;;;28.67;34.18
55032;BME280;40928;51.076;7.950;2022-07-29T12:05:42;96986.84;;;28.83;33.80
55032;BME280;40928;51.076;7.950;2022-07-29T12:08:17;96985.00;;;28.87;33.46
55032;BME280;40928;51.076;7.950;2022-07-29T12:10:47;96976.16;;;28.78;34.32
55032;BME280;40928;51.076;7.950;2022-07-29T12:13:18;96984.94;;;28.67;33.68
55032;BME280;40928;51.076;7.950;2022-07-29T12:15:56;96981.63;;;28.42;34.25
55032;BME280;40928;51.076;7.950;2022-07-29T12:18:24;96979.84;;;28.50;34.00
55032;BME280;40928;51.076;7.950;2022-07-29T12:20:59;96977.22;;;28.37;33.66
55032;BME280;40928;51.076;7.950;2022-07-29T12:23:26;96978.47;;;28.40;33.75
55032;BME280;40928;51.076;7.950;2022-07-29T12:25:53;96977.06;;;28.30;33.90
55032;BME280;40928;51.076;7.950;2022-07-29T12:28:21;96966.53;;;28.32;34.02
55032;BME280;40928;51.076;7.950;2022-07-29T12:30:49;96967.38;;;28.36;34.79
55032;BME280;40928;51.076;7.950;2022-07-29T12:33:23;96971.88;;;28.45;33.96
55032;BME280;40928;51.076;7.950;2022-07-29T12:35:58;96971.69;;;28.53;33.94
55032;BME280;40928;51.076;7.950;2022-07-29T12:38:26;96971.13;;;28.64;34.38
55032;BME280;40928;51.076;7.950;2022-07-29T12:40:54;96968.53;;;28.71;34.57
55032;BME280;40928;51.076;7.950;2022-07-29T12:43:23;96970.56;;;28.74;34.37
55032;BME280;40928;51.076;7.950;2022-07-29T12:45:55;96964.81;;;28.79;33.88
55032;BME280;40928;51.076;7.950;2022-07-29T12:48:38;96963.28;;;28.82;33.89
55032;BME280;40928;51.076;7.950;2022-07-29T12:51:07;96960.69;;;28.89;34.11
55032;BME280;40928;51.076;7.950;2022-07-29T12:53:35;96964.22;;;28.90;34.34
55032;BME280;40928;51.076;7.950;2022-07-29T12:56:04;96949.81;;;28.96;33.99
55032;BME280;40928;51.076;7.950;2022-07-29T12:58:38;96947.38;;;28.91;34.84
55032;BME280;40928;51.076;7.950;2022-07-29T13:01:13;96954.03;;;28.90;34.48
55032;BME280;40928;51.076;7.950;2022-07-29T13:03:46;96945.94;;;28.78;33.94
55032;BME280;40928;51.076;7.950;2022-07-29T13:06:42;96951.38;;;28.58;34.58
55032;BME280;40928;51.076;7.950;2022-07-29T13:09:13;96949.94;;;28.29;34.07
55032;BME280;40928;51.076;7.950;2022-07-29T13:11:46;96947.31;;;28.32;34.75
55032;BME280;40928;51.076;7.950;2022-07-29T13:14:35;96948.97;;;28.21;34.43
55032;BME280;40928;51.076;7.950;2022-07-29T13:19:42;96948.72;;;27.94;35.68
55032;BME280;40928;51.076;7.950;2022-07-29T13:22:14;96949.97;;;27.48;35.90
55032;BME280;40928;51.076;7.950;2022-07-29T13:25:00;96946.22;;;27.12;37.07
55032;BME280;40928;51.076;7.950;2022-07-29T13:27:30;96949.53;;;26.89;37.67
55032;BME280;40928;51.076;7.950;2022-07-29T13:29:59;96939.75;;;26.64;37.72
55032;BME280;40928;51.076;7.950;2022-07-29T13:32:26;96943.44;;;26.55;37.67
55032;BME280;40928;51.076;7.950;2022-07-29T13:34:53;96947.56;;;26.49;37.86
55032;BME280;40928;51.076;7.950;2022-07-29T13:37:20;96945.16;;;26.48;37.72
55032;BME280;40928;51.076;7.950;2022-07-29T13:39:47;96943.03;;;26.16;38.38
55032;BME280;40928;51.076;7.950;2022-07-29T13:42:13;96941.66;;;26.22;38.45
55032;BME280;40928;51.076;7.950;2022-07-29T13:44:40;96941.22;;;26.20;38.51
55032;BME280;40928;51.076;7.950;2022-07-29T13:47:07;96949.41;;;26.20;39.23
55032;BME280;40928;51.076;7.950;2022-07-29T13:49:34;96944.25;;;25.94;39.67
55032;BME280;40928;51.076;7.950;2022-07-29T13:52:00;96953.38;;;25.73;40.36
55032;BME280;40928;51.076;7.950;2022-07-29T13:54:26;96958.97;;;25.64;41.06
55032;BME280;40928;51.076;7.950;2022-07-29T13:56:52;96959.06;;;25.56;41.16